Aviation Digital Data Service (ADDS)

Output produced by TAFs form (0159 UTC 21 April 2014)
found at http://www.aviationweather.gov/adds/tafs/
 
KMRB 202320Z 2100/2124 12004KT P6SM SKC 
     FM210200 00000KT P6SM SKC